createdAt,value
2023-04-16T00:02:37.045Z,4.46
2023-04-16T00:05:40.245Z,4.43
2023-04-16T00:08:43.834Z,4.51
2023-04-16T00:11:46.834Z,4.49
2023-04-16T00:14:49.569Z,4.42
2023-04-16T00:17:52.755Z,4.48
2023-04-16T00:20:55.549Z,4.46
2023-04-16T00:23:58.404Z,4.44
2023-04-16T00:27:01.690Z,4.40
2023-04-16T00:30:07.376Z,4.45
2023-04-16T00:33:10.147Z,4.42
2023-04-16T00:36:13.086Z,4.40
2023-04-16T00:39:16.031Z,4.44
2023-04-16T00:42:19.401Z,4.44
2023-04-16T00:45:22.077Z,4.36
2023-04-16T00:48:27.861Z,4.39
2023-04-16T00:51:31.856Z,4.50
2023-04-16T00:54:34.880Z,4.47
2023-04-16T00:57:37.504Z,4.56
2023-04-16T01:00:41.694Z,4.70
2023-04-16T01:03:47.180Z,4.68
2023-04-16T01:06:51.086Z,4.85
2023-04-16T01:09:53.779Z,4.91
2023-04-16T01:12:56.756Z,5.03
2023-04-16T01:16:00.159Z,5.06
2023-04-16T01:19:03.698Z,5.08
2023-04-16T01:22:07.237Z,5.09
2023-04-16T01:25:14.699Z,5.08
2023-04-16T01:28:17.437Z,5.07
2023-04-16T01:31:20.856Z,5.06
2023-04-16T01:34:24.001Z,5.05
2023-04-16T01:37:27.092Z,5.04
2023-04-16T01:40:29.872Z,5.03
2023-04-16T01:43:32.879Z,4.99
2023-04-16T01:46:36.172Z,4.98
2023-04-16T01:49:39.583Z,4.95
2023-04-16T01:52:42.409Z,4.94
2023-04-16T01:55:45.386Z,4.97
2023-04-16T01:58:47.986Z,5.02
2023-04-16T02:01:51.451Z,5.04
2023-04-16T02:04:54.920Z,5.03
2023-04-16T02:07:57.631Z,5.02
2023-04-16T02:11:01.051Z,5.08
2023-04-16T02:14:03.798Z,5.13
2023-04-16T02:17:06.782Z,5.16
2023-04-16T02:20:10.956Z,5.14
2023-04-16T02:23:17.488Z,5.13
2023-04-16T02:26:20.928Z,5.20
2023-04-16T02:29:24.780Z,5.25
2023-04-16T02:32:27.942Z,5.40
2023-04-16T02:35:31.798Z,5.40
2023-04-16T02:38:34.681Z,5.56
2023-04-16T02:41:38.626Z,5.51
2023-04-16T02:44:41.508Z,5.43
2023-04-16T02:47:44.682Z,5.36
2023-04-16T02:50:47.679Z,5.32
2023-04-16T02:53:50.651Z,5.30
2023-04-16T02:56:53.274Z,5.28
2023-04-16T02:59:56.436Z,5.35
2023-04-16T03:02:59.334Z,5.44
2023-04-16T03:06:02.440Z,5.66
2023-04-16T03:09:05.502Z,5.79
2023-04-16T03:12:08.449Z,5.94
2023-04-16T03:15:11.415Z,6.11
2023-04-16T03:18:14.404Z,6.25
2023-04-16T03:21:17.193Z,6.32
2023-04-16T03:24:20.274Z,6.28
2023-04-16T03:27:24.664Z,6.45
2023-04-16T03:30:27.686Z,6.51
2023-04-16T03:33:30.859Z,6.46
2023-04-16T03:36:33.832Z,6.51
2023-04-16T03:39:36.530Z,6.50
2023-04-16T03:42:39.519Z,6.47
2023-04-16T03:45:47.975Z,6.38
2023-04-16T03:48:51.262Z,6.43
2023-04-16T03:51:54.438Z,6.42
2023-04-16T03:54:57.334Z,6.43
2023-04-16T03:58:03.141Z,6.43
2023-04-16T04:01:07.074Z,6.33
2023-04-16T04:04:11.985Z,6.38
2023-04-16T04:07:16.319Z,6.42
2023-04-16T04:10:19.415Z,6.32
2023-04-16T04:13:22.060Z,6.37
2023-04-16T04:16:25.427Z,6.31
2023-04-16T04:19:28.127Z,6.30
2023-04-16T04:22:31.268Z,6.34
2023-04-16T04:25:33.971Z,6.36
2023-04-16T04:28:36.971Z,6.40
2023-04-16T04:31:40.376Z,6.32
2023-04-16T04:34:43.592Z,6.41
2023-04-16T04:37:46.527Z,6.39
2023-04-16T04:40:49.792Z,6.43
2023-04-16T04:43:52.838Z,6.38
2023-04-16T04:46:56.411Z,6.40
2023-04-16T04:49:59.031Z,6.48
2023-04-16T04:53:02.374Z,6.50
2023-04-16T04:56:11.797Z,6.44
2023-04-16T04:59:15.980Z,6.51
2023-04-16T05:02:18.778Z,6.51
2023-04-16T05:05:22.056Z,6.50
2023-04-16T05:08:25.029Z,6.50
2023-04-16T05:11:28.117Z,6.50
2023-04-16T05:14:30.862Z,6.53
2023-04-16T05:17:33.923Z,6.57
2023-04-16T05:20:37.902Z,6.59
2023-04-16T05:23:40.912Z,6.56
2023-04-16T05:26:43.541Z,6.62
2023-04-16T05:29:46.422Z,6.67
2023-04-16T05:32:49.628Z,6.70
2023-04-16T05:35:52.695Z,6.68
2023-04-16T05:38:55.664Z,6.80
2023-04-16T05:41:58.702Z,6.85
2023-04-16T05:45:04.456Z,7.01
2023-04-16T05:48:09.324Z,7.12
2023-04-16T05:51:12.117Z,7.24
2023-04-16T05:54:15.039Z,7.38
2023-04-16T05:57:17.628Z,7.46
2023-04-16T06:00:21.062Z,7.54
2023-04-16T06:03:24.180Z,7.58
2023-04-16T06:06:27.804Z,7.65
2023-04-16T06:09:31.037Z,7.72
2023-04-16T06:12:34.108Z,7.82
2023-04-16T06:15:37.021Z,7.90
2023-04-16T06:18:39.750Z,8.01
2023-04-16T06:21:44.768Z,8.11
2023-04-16T06:24:47.407Z,8.09
2023-04-16T06:27:50.298Z,8.21
2023-04-16T06:30:53.031Z,8.29
2023-04-16T06:33:56.010Z,8.37
2023-04-16T06:36:58.648Z,8.48
2023-04-16T06:40:01.994Z,8.60
2023-04-16T06:43:04.797Z,8.63
2023-04-16T06:46:07.778Z,8.69
2023-04-16T06:49:10.974Z,8.72
2023-04-16T06:52:14.167Z,8.67
2023-04-16T06:55:16.809Z,8.84
2023-04-16T06:58:19.840Z,8.79
2023-04-16T07:01:22.518Z,8.73
2023-04-16T07:04:25.587Z,8.60
2023-04-16T07:07:28.397Z,8.65
2023-04-16T07:10:31.736Z,8.69
2023-04-16T07:13:34.521Z,8.94
2023-04-16T07:16:38.171Z,9.58
2023-04-16T07:19:41.084Z,10.37
2023-04-16T07:22:44.253Z,11.25
2023-04-16T07:25:46.924Z,11.52
2023-04-16T07:28:49.851Z,11.06
2023-04-16T07:31:52.856Z,11.16
2023-04-16T07:34:56.580Z,10.73
2023-04-16T07:37:59.450Z,10.77
2023-04-16T07:41:02.536Z,11.13
2023-04-16T07:44:05.443Z,10.84
2023-04-16T07:47:08.389Z,10.81
2023-04-16T07:50:11.890Z,10.91
2023-04-16T07:53:14.945Z,10.72
2023-04-16T07:56:17.559Z,10.72
2023-04-16T07:59:23.511Z,10.53
2023-04-16T08:02:27.563Z,10.55
2023-04-16T08:05:30.933Z,10.60
2023-04-16T08:08:33.698Z,10.34
2023-04-16T08:11:36.740Z,10.13
2023-04-16T08:14:41.285Z,9.93
2023-04-16T08:17:44.756Z,9.96
2023-04-16T08:20:47.471Z,9.98
2023-04-16T08:23:50.642Z,10.01
2023-04-16T08:26:53.246Z,10.23
2023-04-16T08:29:56.612Z,10.27
2023-04-16T08:32:59.503Z,9.98
2023-04-16T08:36:03.520Z,9.77
2023-04-16T08:39:06.176Z,9.51
2023-04-16T08:42:30.781Z,9.39
2023-04-16T08:45:35.508Z,9.27
2023-04-16T08:48:39.055Z,9.18
2023-04-16T08:51:45.761Z,9.14
2023-04-16T08:54:57.619Z,9.10
2023-04-16T08:58:01.449Z,9.03
2023-04-16T09:01:05.514Z,9.18
2023-04-16T09:04:09.881Z,9.28
2023-04-16T09:07:13.179Z,9.38
2023-04-16T09:10:16.612Z,9.62
2023-04-16T09:13:20.673Z,9.77
2023-04-16T09:16:24.752Z,9.75
2023-04-16T09:19:28.704Z,9.95
2023-04-16T09:22:31.666Z,10.19
2023-04-16T09:25:35.195Z,10.06
2023-04-16T09:28:41.051Z,10.16
2023-04-16T09:32:02.318Z,9.90
2023-04-16T09:35:05.909Z,10.10
2023-04-16T09:38:08.805Z,10.12
2023-04-16T09:41:11.447Z,10.33
2023-04-16T09:44:14.364Z,10.24
2023-04-16T09:47:17.213Z,10.49
2023-04-16T09:50:20.673Z,10.38
2023-04-16T09:53:33.152Z,10.49
2023-04-16T09:56:44.434Z,10.62
2023-04-16T09:59:47.474Z,10.86
2023-04-16T10:03:02.928Z,10.77
2023-04-16T10:06:15.097Z,10.49
2023-04-16T10:09:17.679Z,10.45
2023-04-16T10:12:20.840Z,10.35
2023-04-16T10:15:23.852Z,10.49
2023-04-16T10:18:27.994Z,10.58
2023-04-16T10:21:34.251Z,10.98
2023-04-16T10:24:38.222Z,11.34
2023-04-16T10:27:41.393Z,11.72
2023-04-16T10:30:55.131Z,11.89
2023-04-16T10:33:58.910Z,11.99
2023-04-16T10:37:01.842Z,12.08
2023-04-16T10:40:22.793Z,12.38
2023-04-16T10:43:26.074Z,12.53
2023-04-16T10:46:39.106Z,12.63
2023-04-16T10:49:43.860Z,12.67
2023-04-16T10:52:46.692Z,12.65
2023-04-16T10:56:08.710Z,12.84
2023-04-16T10:59:12.491Z,12.95
2023-04-16T11:02:19.681Z,12.99
2023-04-16T11:05:23.955Z,12.93
2023-04-16T11:08:27.070Z,12.62
2023-04-16T11:11:39.673Z,12.64
2023-04-16T11:14:43.158Z,12.42
2023-04-16T11:17:54.076Z,12.44
2023-04-16T11:20:57.252Z,12.43
2023-04-16T11:24:00.552Z,12.53
2023-04-16T11:27:03.832Z,12.66
2023-04-16T11:30:11.275Z,12.71
2023-04-16T11:33:14.360Z,12.70
2023-04-16T11:36:16.969Z,12.82
2023-04-16T11:39:24.383Z,12.97
2023-04-16T11:42:28.524Z,12.97
2023-04-16T11:45:31.905Z,12.93
2023-04-16T11:48:48.399Z,13.21
2023-04-16T11:51:53.308Z,13.10
2023-04-16T11:54:57.142Z,13.31
2023-04-16T11:58:11.956Z,13.55
2023-04-16T12:01:21.467Z,13.58
2023-04-16T12:04:26.824Z,13.88
2023-04-16T12:07:29.834Z,13.87
2023-04-16T12:10:37.502Z,14.06
2023-04-16T12:13:40.477Z,14.00
2023-04-16T12:16:43.433Z,14.38
2023-04-16T12:19:55.484Z,14.23
2023-04-16T12:23:01.433Z,14.31
2023-04-16T12:26:10.565Z,14.37
2023-04-16T12:29:21.855Z,14.20
2023-04-16T12:32:24.450Z,14.12
2023-04-16T12:35:32.378Z,13.88
2023-04-16T12:38:35.133Z,13.85
2023-04-16T12:41:39.611Z,13.77
2023-04-16T12:44:42.269Z,13.93
2023-04-16T12:47:46.452Z,14.12
2023-04-16T12:50:49.247Z,14.29
2023-04-16T12:53:53.064Z,14.51
2023-04-16T12:56:55.764Z,14.64
2023-04-16T12:59:58.912Z,14.62
2023-04-16T13:03:01.862Z,15.46
2023-04-16T13:06:04.931Z,15.37
2023-04-16T13:09:07.912Z,14.91
2023-04-16T13:12:11.087Z,14.62
2023-04-16T13:15:14.070Z,14.42
2023-04-16T13:18:17.072Z,14.36
2023-04-16T13:21:19.810Z,14.55
2023-04-16T13:24:23.725Z,14.42
2023-04-16T13:27:26.668Z,14.44
2023-04-16T13:30:29.722Z,14.25
2023-04-16T13:33:32.591Z,14.08
2023-04-16T13:36:35.783Z,14.05
2023-04-16T13:39:38.444Z,13.87
2023-04-16T13:42:41.423Z,13.89
2023-04-16T13:45:44.191Z,14.19
2023-04-16T13:48:47.403Z,14.57
2023-04-16T13:51:50.098Z,14.87
2023-04-16T13:54:53.126Z,14.85
2023-04-16T13:57:56.455Z,14.60
2023-04-16T14:00:59.682Z,14.46
2023-04-16T14:04:06.827Z,14.25
2023-04-16T14:07:09.765Z,14.33
2023-04-16T14:10:12.842Z,13.89
2023-04-16T14:13:16.103Z,13.93
2023-04-16T14:16:19.269Z,13.97
2023-04-16T14:19:22.123Z,13.85
2023-04-16T14:22:25.131Z,13.71
2023-04-16T14:25:28.565Z,13.50
2023-04-16T14:28:31.680Z,13.37
2023-04-16T14:31:34.346Z,13.24
2023-04-16T14:34:37.420Z,13.16
2023-04-16T14:37:40.914Z,13.16
2023-04-16T14:40:43.810Z,12.97
2023-04-16T14:43:46.657Z,12.80
2023-04-16T14:46:49.605Z,12.70
2023-04-16T14:49:52.311Z,12.56
2023-04-16T14:52:55.925Z,12.51
2023-04-16T14:55:59.099Z,12.47
2023-04-16T14:59:02.166Z,12.31
2023-04-16T15:02:05.006Z,12.21
2023-04-16T15:05:10.502Z,12.20
2023-04-16T15:08:13.309Z,12.14
2023-04-16T15:11:16.277Z,12.03
2023-04-16T15:14:19.100Z,12.02
2023-04-16T15:17:22.038Z,12.07
2023-04-16T15:20:24.721Z,12.04
2023-04-16T15:23:29.521Z,12.05
2023-04-16T15:26:32.241Z,12.02
2023-04-16T15:29:35.691Z,12.10
2023-04-16T15:32:38.495Z,11.99
2023-04-16T15:35:41.476Z,11.97
2023-04-16T15:38:44.079Z,11.89
2023-04-16T15:41:59.858Z,11.91
2023-04-16T15:45:03.036Z,11.89
2023-04-16T15:48:06.542Z,11.81
2023-04-16T15:51:09.702Z,11.77
2023-04-16T15:54:12.649Z,11.64
2023-04-16T15:57:15.468Z,11.59
2023-04-16T16:00:18.931Z,11.53
2023-04-16T16:03:22.289Z,11.47
2023-04-16T16:06:25.240Z,11.44
2023-04-16T16:09:28.564Z,11.43
2023-04-16T16:12:31.701Z,11.39
2023-04-16T16:15:35.078Z,11.23
2023-04-16T16:18:38.033Z,11.33
2023-04-16T16:21:41.755Z,11.32
2023-04-16T16:24:44.440Z,11.25
2023-04-16T16:27:47.451Z,11.12
2023-04-16T16:30:51.285Z,11.19
2023-04-16T16:33:54.325Z,11.15
2023-04-16T16:36:56.904Z,11.11
2023-04-16T16:39:59.980Z,11.10
2023-04-16T16:43:02.891Z,11.05
2023-04-16T16:46:07.557Z,11.03
2023-04-16T16:49:10.884Z,11.01
2023-04-16T16:52:14.239Z,10.96
2023-04-16T16:55:18.663Z,10.86
2023-04-16T16:58:21.918Z,10.90
2023-04-16T17:01:28.538Z,10.80
2023-04-16T17:04:31.648Z,10.80
2023-04-16T17:07:34.339Z,10.78
2023-04-16T17:10:37.366Z,10.74
2023-04-16T17:13:40.519Z,10.71
2023-04-16T17:16:46.453Z,10.67
2023-04-16T17:19:49.222Z,10.62
2023-04-16T17:22:52.299Z,10.60
2023-04-16T17:25:54.916Z,10.52
2023-04-16T17:28:59.371Z,10.46
2023-04-16T17:32:02.104Z,10.38
2023-04-16T17:35:06.893Z,10.36
2023-04-16T17:38:09.703Z,10.35
2023-04-16T17:41:12.677Z,10.32
2023-04-16T17:44:15.393Z,10.20
2023-04-16T17:47:18.502Z,10.17
2023-04-16T17:50:21.329Z,10.21
2023-04-16T17:53:24.353Z,10.16
2023-04-16T17:56:27.211Z,10.19
2023-04-16T17:59:30.247Z,10.19
2023-04-16T18:02:33.200Z,10.15
2023-04-16T18:05:36.259Z,10.09
2023-04-16T18:08:39.020Z,10.02
2023-04-16T18:11:42.218Z,10.08
2023-04-16T18:14:45.007Z,10.06
2023-04-16T18:17:47.985Z,10.00
2023-04-16T18:20:52.047Z,10.00
2023-04-16T18:23:55.076Z,9.97
2023-04-16T18:26:57.826Z,9.98
2023-04-16T18:30:01.367Z,9.98
2023-04-16T18:33:30.688Z,9.96
2023-04-16T18:36:27.446Z,9.97
2023-04-16T18:39:32.989Z,9.95
2023-04-16T18:42:36.314Z,9.97
2023-04-16T18:45:40.017Z,9.98
2023-04-16T18:48:44.605Z,9.89
2023-04-16T18:51:47.551Z,9.91
2023-04-16T18:54:50.669Z,9.94
2023-04-16T18:57:53.469Z,9.96
2023-04-16T19:01:00.540Z,9.96
2023-04-16T19:04:03.621Z,10.01
2023-04-16T19:07:06.636Z,10.01
2023-04-16T19:10:09.646Z,10.07
2023-04-16T19:13:12.711Z,10.08
2023-04-16T19:16:15.857Z,10.03
2023-04-16T19:19:18.922Z,10.15
2023-04-16T19:22:21.688Z,10.19
2023-04-16T19:25:24.774Z,10.14
2023-04-16T19:28:27.536Z,10.12
2023-04-16T19:31:30.783Z,10.17
2023-04-16T19:34:33.454Z,10.12
2023-04-16T19:37:36.435Z,10.14
2023-04-16T19:40:40.000Z,10.15
2023-04-16T19:43:43.088Z,10.14
2023-04-16T19:46:46.187Z,10.10
2023-04-16T19:49:49.153Z,10.10
2023-04-16T19:52:52.072Z,10.20
2023-04-16T19:55:55.120Z,10.18
2023-04-16T19:59:00.945Z,10.15
2023-04-16T20:02:04.373Z,10.06
2023-04-16T20:05:07.698Z,10.07
2023-04-16T20:08:10.441Z,10.03
2023-04-16T20:11:13.443Z,10.07
2023-04-16T20:14:17.322Z,10.09
2023-04-16T20:17:20.282Z,10.03
2023-04-16T20:20:23.635Z,10.07
2023-04-16T20:23:26.666Z,10.14
2023-04-16T20:26:34.165Z,10.13
2023-04-16T20:29:37.133Z,10.12
2023-04-16T20:32:39.872Z,10.11
2023-04-16T20:35:42.886Z,10.08
2023-04-16T20:38:46.650Z,10.15
2023-04-16T20:41:56.697Z,10.21
2023-04-16T20:45:00.747Z,10.12
2023-04-16T20:48:13.043Z,10.19
2023-04-16T20:51:15.969Z,10.16
2023-04-16T20:54:19.125Z,10.23
2023-04-16T20:57:21.845Z,10.22
2023-04-16T21:00:24.815Z,10.23
2023-04-16T21:03:27.711Z,10.14
2023-04-16T21:06:32.988Z,10.17
2023-04-16T21:09:35.752Z,10.15
2023-04-16T21:12:38.993Z,10.13
2023-04-16T21:15:43.333Z,10.08
2023-04-16T21:18:46.522Z,10.14
2023-04-16T21:21:49.298Z,10.12
2023-04-16T21:24:52.181Z,10.06
2023-04-16T21:27:54.930Z,9.97
2023-04-16T21:30:57.823Z,9.94
2023-04-16T21:34:00.771Z,9.86
2023-04-16T21:37:03.930Z,9.86
2023-04-16T21:40:07.207Z,9.84
2023-04-16T21:43:10.168Z,9.75
2023-04-16T21:46:12.831Z,9.85
2023-04-16T21:49:15.830Z,9.84
2023-04-16T21:52:22.284Z,9.78
2023-04-16T21:55:25.762Z,9.69
2023-04-16T21:58:28.567Z,9.72
2023-04-16T22:01:31.620Z,9.70
2023-04-16T22:04:38.590Z,9.72
2023-04-16T22:07:41.346Z,9.75
2023-04-16T22:10:44.300Z,9.72
2023-04-16T22:13:47.675Z,9.83
2023-04-16T22:16:52.263Z,9.80
2023-04-16T22:19:55.192Z,9.80
2023-04-16T22:22:58.747Z,9.80
2023-04-16T22:26:02.727Z,9.77
2023-04-16T22:29:06.625Z,9.77
2023-04-16T22:32:09.966Z,9.79
2023-04-16T22:35:13.201Z,9.82
2023-04-16T22:38:16.568Z,9.84
2023-04-16T22:41:19.828Z,9.86
2023-04-16T22:44:22.651Z,9.88
2023-04-16T22:47:25.868Z,9.86
2023-04-16T22:50:31.194Z,9.99
2023-04-16T22:53:37.596Z,9.98
2023-04-16T22:56:40.370Z,9.93
2023-04-16T22:59:43.518Z,9.95
2023-04-16T23:02:46.745Z,9.91
2023-04-16T23:05:49.798Z,9.93
2023-04-16T23:08:52.529Z,9.94
2023-04-16T23:11:56.297Z,9.91
2023-04-16T23:15:00.557Z,9.91
2023-04-16T23:18:03.983Z,9.91
2023-04-16T23:21:06.714Z,9.90
2023-04-16T23:24:09.711Z,9.90
2023-04-16T23:27:12.304Z,9.95
2023-04-16T23:30:15.827Z,9.88
2023-04-16T23:33:18.793Z,9.87
2023-04-16T23:36:21.835Z,9.83
2023-04-16T23:39:24.537Z,9.80
2023-04-16T23:42:27.544Z,9.76
2023-04-16T23:45:30.479Z,9.67
2023-04-16T23:48:33.647Z,9.70
2023-04-16T23:51:36.994Z,9.61
2023-04-16T23:54:40.183Z,9.61
2023-04-16T23:57:42.814Z,9.56
